Time;durP1;ratioP1;P1;durP2;ratioP2;P2;SDS_P1;SDS_P2;PMS_P1;PMS_P2;Temp;Humidity;BMP_temperature;BMP_pressure;BME280_temperature;BME280_humidity;BME280_pressure;Samples;Min_cycle;Max_cycle;Signal;HPM_P1;HPM_P2
2023/02/03 00:02:30;;;;;;;6.30;5.10;;;5.80;99.90;;;;;;5063351;28;20555;-73
2023/02/03 00:04:58;;;;;;;6.30;4.73;;;5.90;99.90;;;;;;5057852;28;21078;-73
2023/02/03 00:07:31;;;;;;;5.10;4.60;;;5.90;99.90;;;;;;5057884;28;20465;-73
2023/02/03 00:10:02;;;;;;;6.20;4.97;;;5.90;99.90;;;;;;5066511;28;20548;-73
2023/02/03 00:12:30;;;;;;;5.90;5.30;;;6.00;99.90;;;;;;5066718;28;22237;-73
2023/02/03 00:15:13;;;;;;;6.33;4.77;;;6.00;99.90;;;;;;5069242;27;20484;-72
2023/02/03 00:17:45;;;;;;;5.87;5.10;;;6.00;99.90;;;;;;5075047;28;20844;-72
2023/02/03 00:20:18;;;;;;;6.13;5.50;;;6.10;99.90;;;;;;5074190;28;20465;-72
2023/02/03 00:22:48;;;;;;;5.20;4.70;;;6.10;99.90;;;;;;5073019;28;21088;-73
2023/02/03 00:25:20;;;;;;;6.00;5.30;;;6.20;99.90;;;;;;5072004;28;20488;-72
2023/02/03 00:27:52;;;;;;;5.43;4.70;;;6.20;99.90;;;;;;5072437;28;20469;-74
2023/02/03 00:30:26;;;;;;;5.50;4.80;;;6.30;99.90;;;;;;5066341;28;20578;-73
2023/02/03 00:32:58;;;;;;;6.53;5.83;;;6.30;99.90;;;;;;5071429;28;20555;-71
2023/02/03 00:35:33;;;;;;;6.17;5.57;;;6.30;99.90;;;;;;5075173;28;20493;-72
2023/02/03 00:38:01;;;;;;;6.83;5.60;;;6.30;99.90;;;;;;5071613;28;20473;-73
2023/02/03 00:40:35;;;;;;;6.73;5.47;;;6.40;99.90;;;;;;5070639;28;20509;-73
2023/02/03 00:43:04;;;;;;;7.20;6.50;;;6.40;99.90;;;;;;5074308;28;20501;-73
2023/02/03 00:45:36;;;;;;;5.87;5.27;;;6.40;99.90;;;;;;5072279;28;20523;-72
2023/02/03 00:48:05;;;;;;;6.33;5.33;;;6.40;99.90;;;;;;5074967;28;20830;-70
2023/02/03 00:50:38;;;;;;;7.13;6.20;;;6.50;99.90;;;;;;5074244;28;20484;-74
2023/02/03 00:53:08;;;;;;;6.33;5.73;;;6.50;99.90;;;;;;5073982;28;20493;-72
2023/02/03 00:55:41;;;;;;;7.03;5.93;;;6.60;99.90;;;;;;5074724;27;20485;-73
2023/02/03 00:58:09;;;;;;;7.13;6.00;;;6.70;99.90;;;;;;5073935;28;20469;-73
2023/02/03 01:00:39;;;;;;;9.10;7.07;;;6.70;99.90;;;;;;5071647;28;20461;-73
2023/02/03 01:03:16;;;;;;;8.60;6.90;;;6.80;99.90;;;;;;5073439;28;20865;-72
2023/02/03 01:05:48;;;;;;;8.80;7.70;;;6.80;99.90;;;;;;5071855;28;20554;-74
2023/02/03 01:08:22;;;;;;;11.57;8.20;;;6.90;99.90;;;;;;5069910;28;20465;-72
2023/02/03 01:10:54;;;;;;;11.20;8.20;;;7.00;99.90;;;;;;5068077;28;20865;-72
2023/02/03 01:13:25;;;;;;;11.77;8.07;;;7.00;99.90;;;;;;5068616;28;20517;-73
2023/02/03 01:16:00;;;;;;;10.27;7.50;;;7.00;99.90;;;;;;5069165;28;20496;-73
2023/02/03 01:18:32;;;;;;;9.80;7.60;;;7.10;99.90;;;;;;5071367;28;20863;-72
2023/02/03 01:21:06;;;;;;;9.07;7.53;;;7.20;99.90;;;;;;5068350;28;20600;-73
2023/02/03 01:23:37;;;;;;;8.83;7.80;;;7.20;99.90;;;;;;5067542;28;20499;-73
2023/02/03 01:26:09;;;;;;;9.40;7.80;;;7.20;99.90;;;;;;5063899;28;20550;-72
2023/02/03 01:28:38;;;;;;;12.27;8.20;;;7.30;99.90;;;;;;5069292;28;20522;-72
2023/02/03 01:31:21;;;;;;;10.40;8.60;;;7.30;99.90;;;;;;5064896;28;20493;-72
2023/02/03 01:33:53;;;;;;;10.40;8.13;;;7.40;99.90;;;;;;5063518;28;20477;-71
2023/02/03 01:36:25;;;;;;;9.03;8.00;;;7.40;99.90;;;;;;5058981;28;21019;-73
2023/02/03 01:38:59;;;;;;;9.17;8.30;;;7.40;99.90;;;;;;5066878;28;20465;-71
2023/02/03 01:41:31;;;;;;;10.20;7.90;;;7.40;99.90;;;;;;5061522;28;21151;-72
2023/02/03 01:44:25;;;;;;;10.00;7.50;;;7.40;99.90;;;;;;5063922;28;21033;-72
2023/02/03 01:47:09;;;;;;;9.73;7.70;;;7.40;99.90;;;;;;5066220;28;20558;-72
2023/02/03 01:49:52;;;;;;;8.83;7.60;;;7.50;99.90;;;;;;5065041;28;20469;-72
2023/02/03 01:52:20;;;;;;;10.73;7.23;;;7.50;99.90;;;;;;5064973;28;20493;-72
2023/02/03 01:54:55;;;;;;;7.97;7.17;;;7.50;99.90;;;;;;5063851;28;20468;-72
2023/02/03 01:57:34;;;;;;;10.90;7.30;;;7.50;99.90;;;;;;5063760;28;20488;-73
2023/02/03 02:00:04;;;;;;;8.90;6.73;;;7.50;99.90;;;;;;5062949;28;20472;-71
2023/02/03 02:02:36;;;;;;;9.73;7.37;;;7.50;99.90;;;;;;5067197;28;20485;-74
2023/02/03 02:05:18;;;;;;;10.77;6.47;;;7.50;99.90;;;;;;5069315;28;20549;-73
2023/02/03 02:07:51;;;;;;;11.90;7.30;;;7.50;99.90;;;;;;5070955;28;20476;-72
2023/02/03 02:10:23;;;;;;;7.87;6.63;;;7.60;99.90;;;;;;5069457;28;20483;-72
2023/02/03 02:12:58;;;;;;;9.30;6.67;;;7.70;99.90;;;;;;5064633;28;21014;-73
2023/02/03 02:15:38;;;;;;;9.40;6.50;;;7.70;99.90;;;;;;5065630;28;20497;-74
2023/02/03 02:18:23;;;;;;;11.00;6.67;;;7.70;99.90;;;;;;5068239;28;20526;-73
2023/02/03 02:21:40;;;;;;;10.93;6.00;;;7.70;99.90;;;;;;5069084;28;20497;-72
2023/02/03 02:24:37;;;;;;;12.50;6.40;;;7.70;99.90;;;;;;5017743;28;20465;-72
2023/02/03 02:27:26;;;;;;;8.83;7.07;;;7.70;99.90;;;;;;5060335;28;20500;-72
2023/02/03 02:30:50;;;;;;;7.80;6.43;;;7.60;99.90;;;;;;5068570;28;20472;-72
2023/02/03 02:33:35;;;;;;;10.63;6.07;;;7.70;99.90;;;;;;5067286;28;20489;-72
2023/02/03 02:36:19;;;;;;;7.83;6.00;;;7.70;99.90;;;;;;5067359;28;20481;-72
2023/02/03 02:38:55;;;;;;;7.03;5.93;;;7.70;99.90;;;;;;5064991;28;21087;-73
2023/02/03 02:41:38;;;;;;;10.30;6.90;;;7.70;99.90;;;;;;5069747;28;20477;-73
2023/02/03 02:44:11;;;;;;;6.83;6.10;;;7.70;99.90;;;;;;5066130;28;20478;-72
2023/02/03 02:46:45;;;;;;;7.93;5.83;;;7.70;99.90;;;;;;5063880;28;20500;-72
2023/02/03 02:49:21;;;;;;;7.20;5.90;;;7.70;99.90;;;;;;5068326;28;20472;-73
2023/02/03 02:51:50;;;;;;;7.43;5.70;;;7.70;99.90;;;;;;5064102;28;20489;-73
2023/02/03 02:54:23;;;;;;;8.57;6.47;;;7.70;99.90;;;;;;5061956;28;20461;-73
2023/02/03 02:56:56;;;;;;;7.23;6.17;;;7.70;99.90;;;;;;5061400;28;21322;-73
2023/02/03 02:59:32;;;;;;;10.67;6.10;;;7.70;99.90;;;;;;5063379;28;20992;-73
2023/02/03 03:02:01;;;;;;;6.37;5.67;;;7.70;99.90;;;;;;5063566;28;21086;-72
2023/02/03 03:04:35;;;;;;;7.40;5.67;;;7.80;99.90;;;;;;5051751;28;20466;-72
2023/02/03 03:07:07;;;;;;;7.20;5.20;;;7.80;99.90;;;;;;5057640;28;20485;-72
2023/02/03 03:09:45;;;;;;;6.63;4.97;;;7.80;99.90;;;;;;5064903;28;20491;-72
2023/02/03 03:12:17;;;;;;;9.30;5.07;;;7.80;99.90;;;;;;5067548;28;21137;-72
2023/02/03 03:14:55;;;;;;;6.77;5.17;;;7.80;99.90;;;;;;5061722;28;21067;-72
2023/02/03 03:17:28;;;;;;;7.30;5.80;;;7.80;99.90;;;;;;5064705;28;20528;-72
2023/02/03 03:20:23;;;;;;;5.77;4.60;;;7.80;99.90;;;;;;5066042;28;20469;-72
2023/02/03 03:23:06;;;;;;;5.63;4.50;;;7.80;99.90;;;;;;5066625;28;20497;-72
2023/02/03 03:25:39;;;;;;;7.77;4.87;;;7.80;99.90;;;;;;5068154;28;20477;-72
2023/02/03 03:28:18;;;;;;;6.73;4.10;;;7.80;99.90;;;;;;5067029;28;21060;-74
2023/02/03 03:30:48;;;;;;;7.10;4.10;;;7.80;99.90;;;;;;5064097;28;20491;-72
2023/02/03 03:33:18;;;;;;;6.40;4.10;;;7.80;99.90;;;;;;5065365;28;20942;-72
2023/02/03 03:35:53;;;;;;;4.63;3.67;;;7.80;99.90;;;;;;5059537;28;20485;-72
2023/02/03 03:38:31;;;;;;;6.13;4.20;;;7.80;99.90;;;;;;5067983;28;20972;-71
2023/02/03 03:41:06;;;;;;;6.57;4.20;;;7.90;99.90;;;;;;5068422;28;20994;-72
2023/02/03 03:43:44;;;;;;;7.17;3.80;;;7.90;99.90;;;;;;5065455;28;20571;-72
2023/02/03 03:46:14;;;;;;;4.10;2.80;;;7.90;99.90;;;;;;5063676;28;20480;-71
2023/02/03 03:48:51;;;;;;;6.73;3.47;;;7.90;99.90;;;;;;5066679;28;20474;-71
2023/02/03 03:51:28;;;;;;;8.47;3.50;;;7.90;99.90;;;;;;5067364;28;20548;-72
2023/02/03 03:54:03;;;;;;;3.87;3.13;;;7.90;99.90;;;;;;5066400;28;20991;-72
2023/02/03 03:56:37;;;;;;;5.40;3.73;;;7.90;99.90;;;;;;5064829;28;20493;-73
2023/02/03 03:59:09;;;;;;;5.90;3.10;;;7.90;99.90;;;;;;5064212;28;20465;-72
2023/02/03 04:01:41;;;;;;;6.80;3.67;;;7.90;99.90;;;;;;5064306;28;20473;-71
2023/02/03 04:04:16;;;;;;;8.67;3.70;;;7.90;99.90;;;;;;5066822;28;20469;-72
2023/02/03 04:06:45;;;;;;;6.63;3.60;;;7.90;99.90;;;;;;5066520;28;20494;-72
2023/02/03 04:09:13;;;;;;;8.60;4.17;;;7.90;99.90;;;;;;5069612;28;20465;-73
2023/02/03 04:12:05;;;;;;;7.73;4.03;;;7.90;99.90;;;;;;5066324;28;21070;-72
2023/02/03 04:14:38;;;;;;;7.20;3.70;;;7.90;99.90;;;;;;5068662;28;20465;-72
2023/02/03 04:17:08;;;;;;;5.20;3.50;;;7.90;99.90;;;;;;5068107;28;20473;-71
2023/02/03 04:19:43;;;;;;;5.80;3.20;;;7.80;99.90;;;;;;5067600;28;20470;-71
2023/02/03 04:22:19;;;;;;;4.47;4.07;;;7.80;99.90;;;;;;5067625;28;21087;-72
2023/02/03 04:24:47;;;;;;;5.80;3.93;;;7.80;99.90;;;;;;5062994;28;20961;-72
2023/02/03 04:27:21;;;;;;;6.50;4.03;;;7.80;99.90;;;;;;5068242;28;21043;-71
2023/02/03 04:29:51;;;;;;;5.00;4.57;;;7.80;99.90;;;;;;5055370;28;20473;-72
2023/02/03 04:32:19;;;;;;;6.03;4.20;;;7.80;99.90;;;;;;5062470;28;21011;-70
2023/02/03 04:34:51;;;;;;;6.73;4.20;;;7.80;99.90;;;;;;5058038;28;20522;-71
2023/02/03 04:37:29;;;;;;;4.33;3.90;;;7.80;99.90;;;;;;5059785;28;20489;-71
2023/02/03 04:40:01;;;;;;;4.93;3.60;;;7.80;99.90;;;;;;5064637;28;20556;-71
2023/02/03 04:42:33;;;;;;;7.10;4.23;;;7.80;99.90;;;;;;5060164;28;20481;-71
2023/02/03 04:45:05;;;;;;;5.47;4.37;;;7.80;99.90;;;;;;5054495;28;21397;-71
2023/02/03 04:47:38;;;;;;;7.27;4.80;;;7.80;99.90;;;;;;5060875;28;20466;-72
2023/02/03 04:50:09;;;;;;;5.77;4.03;;;7.80;99.90;;;;;;5061025;28;20465;-71
2023/02/03 04:52:46;;;;;;;5.10;4.00;;;7.80;99.90;;;;;;5060394;28;20608;-71
2023/02/03 04:55:14;;;;;;;5.07;4.67;;;7.80;99.90;;;;;;5062998;28;20485;-71
2023/02/03 04:57:47;;;;;;;7.67;4.40;;;7.80;99.90;;;;;;5060252;28;20473;-72
2023/02/03 05:00:17;;;;;;;4.90;4.40;;;7.80;99.90;;;;;;5056793;28;20492;-71
2023/02/03 05:02:47;;;;;;;6.13;4.50;;;7.80;99.90;;;;;;5061914;28;20527;-71
2023/02/03 05:05:15;;;;;;;7.07;4.80;;;7.70;99.90;;;;;;5064242;28;20489;-72
2023/02/03 05:07:52;;;;;;;5.27;4.77;;;7.70;99.90;;;;;;5063599;28;20473;-71
2023/02/03 05:10:31;;;;;;;5.90;5.30;;;7.70;99.90;;;;;;5060551;28;20466;-71
2023/02/03 05:13:04;;;;;;;5.83;5.13;;;7.70;99.90;;;;;;5064470;28;20932;-71
2023/02/03 05:15:37;;;;;;;6.63;5.10;;;7.70;99.90;;;;;;5062883;28;20493;-71
2023/02/03 05:18:15;;;;;;;6.90;5.23;;;7.80;99.90;;;;;;5059949;28;20547;-71
2023/02/03 05:20:47;;;;;;;7.80;5.53;;;7.70;99.90;;;;;;5068535;28;20500;-71
2023/02/03 05:23:20;;;;;;;6.40;5.43;;;7.80;99.90;;;;;;5069203;28;20493;-71
2023/02/03 05:25:53;;;;;;;7.17;5.40;;;7.80;99.90;;;;;;5065997;28;20493;-71
2023/02/03 05:28:21;;;;;;;7.77;5.07;;;7.80;99.90;;;;;;5066238;28;21497;-71
2023/02/03 05:30:57;;;;;;;5.43;4.93;;;7.80;99.90;;;;;;5068651;28;20473;-72
2023/02/03 05:33:29;;;;;;;5.50;4.87;;;7.80;99.90;;;;;;5066438;28;20592;-71
2023/02/03 05:35:59;;;;;;;5.50;4.60;;;7.80;99.90;;;;;;5064235;28;20489;-71
2023/02/03 05:38:30;;;;;;;5.93;4.80;;;7.80;99.90;;;;;;5069548;28;20477;-71
2023/02/03 05:43:54;;;;;;;4.20;3.90;;;7.80;99.90;;;;;;5065025;28;20474;-71
2023/02/03 05:46:24;;;;;;;4.87;3.87;;;7.70;99.90;;;;;;5059462;28;20486;-71
2023/02/03 05:48:58;;;;;;;4.83;3.83;;;7.70;99.90;;;;;;5063455;28;20461;-71
2023/02/03 05:51:28;;;;;;;4.83;4.30;;;7.80;99.90;;;;;;5059861;28;20466;-70
2023/02/03 05:53:57;;;;;;;4.50;4.10;;;7.80;99.90;;;;;;5059274;28;20500;-70
2023/02/03 05:56:27;;;;;;;9.03;4.10;;;7.80;99.90;;;;;;5061434;28;20508;-71
2023/02/03 05:59:01;;;;;;;6.27;4.40;;;7.80;99.90;;;;;;5065062;28;20465;-70
2023/02/03 06:01:31;;;;;;;6.40;4.57;;;7.80;99.90;;;;;;5058021;28;21008;-69
2023/02/03 06:04:10;;;;;;;4.60;4.20;;;7.80;99.90;;;;;;5065768;28;20469;-70
2023/02/03 06:06:41;;;;;;;7.03;3.67;;;7.80;99.90;;;;;;5060693;28;20489;-71
2023/02/03 06:09:15;;;;;;;4.60;3.73;;;7.80;99.90;;;;;;5068479;28;20795;-70
2023/02/03 06:11:49;;;;;;;4.33;3.63;;;7.80;99.90;;;;;;5067639;28;20550;-70
2023/02/03 06:14:27;;;;;;;5.53;3.50;;;7.80;99.90;;;;;;5060378;28;20501;-69
2023/02/03 06:16:58;;;;;;;5.33;3.53;;;7.80;99.90;;;;;;5049818;28;20488;-70
2023/02/03 06:19:30;;;;;;;5.20;3.47;;;7.80;99.90;;;;;;5051201;28;20478;-69
2023/02/03 06:22:01;;;;;;;3.97;2.80;;;7.80;99.90;;;;;;5056347;28;20501;-69
2023/02/03 06:24:30;;;;;;;6.50;3.23;;;7.80;99.90;;;;;;5052199;28;20473;-69
2023/02/03 06:26:58;;;;;;;5.10;3.10;;;7.80;99.90;;;;;;5040657;28;21000;-70
2023/02/03 06:29:28;;;;;;;4.03;2.67;;;7.80;99.90;;;;;;5058852;28;22178;-70
2023/02/03 06:31:56;;;;;;;3.40;3.00;;;7.80;99.90;;;;;;5021543;28;20504;-69
2023/02/03 06:34:24;;;;;;;5.20;3.03;;;7.80;99.90;;;;;;5031155;28;20493;-70
2023/02/03 06:36:52;;;;;;;5.43;3.10;;;7.80;99.90;;;;;;5029252;28;20852;-70
2023/02/03 06:39:23;;;;;;;4.60;3.53;;;7.80;99.90;;;;;;5031843;28;20478;-69
2023/02/03 06:41:56;;;;;;;4.30;3.00;;;7.80;99.90;;;;;;5032476;28;20492;-69
2023/02/03 06:44:24;;;;;;;3.53;3.23;;;7.80;99.90;;;;;;5042908;28;20478;-69
2023/02/03 06:46:52;;;;;;;5.77;3.40;;;7.80;99.90;;;;;;5036511;28;20672;-69
2023/02/03 06:49:20;;;;;;;3.50;3.20;;;7.90;99.90;;;;;;5048575;28;20500;-69
2023/02/03 06:51:52;;;;;;;6.33;3.97;;;7.90;99.90;;;;;;5053691;28;20494;-69
2023/02/03 06:54:20;;;;;;;6.23;3.77;;;7.90;99.90;;;;;;5047844;28;21027;-70
2023/02/03 06:56:48;;;;;;;9.90;3.90;;;7.90;99.90;;;;;;5045750;28;20485;-70
2023/02/03 06:59:17;;;;;;;8.63;3.70;;;7.90;99.90;;;;;;5052938;28;20477;-70
2023/02/03 07:01:47;;;;;;;7.43;4.10;;;8.00;99.90;;;;;;5057040;28;20931;-70
2023/02/03 07:04:15;;;;;;;5.47;3.83;;;8.00;99.90;;;;;;5058867;28;20461;-69
2023/02/03 07:06:43;;;;;;;5.73;3.50;;;8.00;99.90;;;;;;5047070;28;20519;-71
2023/02/03 07:09:11;;;;;;;8.03;4.20;;;8.00;99.90;;;;;;5027759;28;20469;-69
2023/02/03 07:11:39;;;;;;;7.63;3.70;;;8.10;99.90;;;;;;5029860;28;20473;-69
2023/02/03 07:14:07;;;;;;;5.97;3.60;;;8.10;99.90;;;;;;5022628;28;20497;-68
2023/02/03 07:16:37;;;;;;;7.47;3.23;;;8.10;99.90;;;;;;5032561;28;20489;-69
2023/02/03 07:19:06;;;;;;;7.60;3.30;;;8.20;99.90;;;;;;5047302;28;20473;-68
2023/02/03 07:21:33;;;;;;;6.30;3.20;;;8.20;99.90;;;;;;5059396;28;20977;-69
2023/02/03 07:24:02;;;;;;;6.23;3.60;;;8.20;99.90;;;;;;5051326;28;21049;-69
2023/02/03 07:26:30;;;;;;;4.70;2.93;;;8.20;99.90;;;;;;5044627;28;20481;-69
2023/02/03 07:29:01;;;;;;;5.40;3.00;;;8.20;99.90;;;;;;5059568;28;20469;-69
2023/02/03 07:31:31;;;;;;;9.63;2.83;;;8.20;99.90;;;;;;5055932;28;20981;-69
2023/02/03 07:34:01;;;;;;;7.37;2.87;;;8.20;99.90;;;;;;5058233;28;20493;-69
2023/02/03 07:36:29;;;;;;;4.77;3.30;;;8.20;99.90;;;;;;5037565;27;20485;-69
2023/02/03 07:38:57;;;;;;;7.83;3.23;;;8.20;99.90;;;;;;5041788;28;20473;-70
2023/02/03 07:41:27;;;;;;;6.33;2.70;;;8.20;99.90;;;;;;5049528;28;20473;-69
2023/02/03 07:43:54;;;;;;;8.63;4.03;;;8.20;99.90;;;;;;5060885;28;20481;-71
2023/02/03 07:46:22;;;;;;;8.57;3.10;;;8.20;99.90;;;;;;5049136;28;20497;-70
2023/02/03 07:48:51;;;;;;;6.47;3.43;;;8.30;99.90;;;;;;5047311;28;20465;-69
2023/02/03 07:51:21;;;;;;;6.73;3.27;;;8.30;99.90;;;;;;5047123;28;20476;-70
2023/02/03 07:53:49;;;;;;;9.73;3.30;;;8.30;99.90;;;;;;5050833;28;20482;-70
2023/02/03 07:56:17;;;;;;;9.27;3.10;;;8.30;99.90;;;;;;5054577;28;20500;-70
2023/02/03 07:58:45;;;;;;;6.73;2.97;;;8.30;99.90;;;;;;5057635;28;20474;-70
2023/02/03 08:01:15;;;;;;;9.50;2.90;;;8.30;99.90;;;;;;5053791;28;20473;-70
2023/02/03 08:03:43;;;;;;;7.80;3.10;;;8.30;99.90;;;;;;5022949;28;20493;-70
2023/02/03 08:06:11;;;;;;;9.07;3.33;;;8.30;99.90;;;;;;5047856;28;20580;-71
2023/02/03 08:08:41;;;;;;;10.77;3.27;;;8.30;99.90;;;;;;5036957;28;20476;-70
2023/02/03 08:11:09;;;;;;;7.80;3.20;;;8.30;99.90;;;;;;5053219;28;20470;-71
2023/02/03 08:13:39;;;;;;;11.17;3.50;;;8.40;99.90;;;;;;5048173;28;21096;-71
2023/02/03 08:16:07;;;;;;;9.60;3.27;;;8.40;99.90;;;;;;5045641;28;20600;-70
2023/02/03 08:18:35;;;;;;;6.93;3.20;;;8.40;99.90;;;;;;5046064;28;20586;-68
2023/02/03 08:21:03;;;;;;;10.03;2.90;;;8.40;99.90;;;;;;5054208;28;20497;-70
2023/02/03 08:23:34;;;;;;;7.80;2.60;;;8.40;99.90;;;;;;5044309;28;20718;-70
2023/02/03 08:26:04;;;;;;;6.80;3.07;;;8.30;99.90;;;;;;5061187;28;20489;-70
2023/02/03 08:28:32;;;;;;;8.77;3.40;;;8.30;99.90;;;;;;5060592;28;20524;-70
2023/02/03 08:31:00;;;;;;;7.47;2.90;;;8.20;99.90;;;;;;5048661;28;20469;-70
2023/02/03 08:33:30;;;;;;;13.10;3.50;;;8.20;99.90;;;;;;5054988;28;20609;-70
2023/02/03 08:35:59;;;;;;;9.70;2.80;;;8.20;99.90;;;;;;5044448;28;20506;-69
2023/02/03 08:38:27;;;;;;;11.93;3.40;;;8.20;99.90;;;;;;5057465;28;20912;-70
2023/02/03 08:40:55;;;;;;;10.63;3.03;;;8.20;99.90;;;;;;5062554;28;21074;-70
2023/02/03 08:43:25;;;;;;;12.50;3.70;;;8.20;99.90;;;;;;5061187;28;20503;-70
2023/02/03 08:46:01;;;;;;;10.67;4.20;;;8.30;99.90;;;;;;5058296;28;20512;-70
2023/02/03 08:48:30;;;;;;;13.80;4.00;;;8.20;99.90;;;;;;5061215;28;21021;-70
2023/02/03 08:50:58;;;;;;;15.13;4.60;;;8.20;99.90;;;;;;5062572;28;20472;-71
2023/02/03 08:53:26;;;;;;;17.07;4.30;;;8.20;99.90;;;;;;5058335;28;20497;-71
2023/02/03 08:55:55;;;;;;;20.20;4.83;;;8.20;99.90;;;;;;5052585;28;20489;-70
2023/02/03 08:58:23;;;;;;;13.83;4.23;;;8.20;99.90;;;;;;5045797;28;20553;-71
2023/02/03 09:00:52;;;;;;;13.40;4.43;;;8.20;99.90;;;;;;5059685;28;20474;-72
2023/02/03 09:03:20;;;;;;;15.17;4.80;;;8.20;99.90;;;;;;5053688;28;20583;-72
2023/02/03 09:05:48;;;;;;;17.40;4.87;;;8.20;99.90;;;;;;5043664;28;20631;-73
2023/02/03 09:08:16;;;;;;;17.23;4.67;;;8.20;99.90;;;;;;5055012;28;20473;-71
2023/02/03 09:10:44;;;;;;;17.93;4.90;;;8.20;99.90;;;;;;5047199;28;20469;-72
2023/02/03 09:13:12;;;;;;;13.97;4.50;;;8.20;99.90;;;;;;5047522;28;20494;-72
2023/02/03 09:15:40;;;;;;;18.63;5.93;;;8.20;99.90;;;;;;5045941;28;20493;-72
2023/02/03 09:18:09;;;;;;;13.90;5.00;;;8.20;99.90;;;;;;5055903;28;21085;-71
2023/02/03 09:20:37;;;;;;;20.07;5.00;;;8.10;99.90;;;;;;5051773;28;20519;-72
2023/02/03 09:23:05;;;;;;;15.90;4.90;;;8.20;99.90;;;;;;5049142;28;20591;-72
2023/02/03 09:25:33;;;;;;;22.90;5.20;;;8.20;99.90;;;;;;5049203;28;20481;-72
2023/02/03 09:28:01;;;;;;;18.30;5.87;;;8.20;99.90;;;;;;5046081;28;20474;-71
2023/02/03 09:30:30;;;;;;;24.30;5.43;;;8.20;99.90;;;;;;5044095;28;20567;-72
2023/02/03 09:32:59;;;;;;;21.80;5.57;;;8.20;99.90;;;;;;5053219;28;20862;-71
2023/02/03 09:35:29;;;;;;;18.23;6.30;;;8.20;99.90;;;;;;5055696;28;20858;-71
2023/02/03 09:37:58;;;;;;;21.73;5.60;;;8.20;99.90;;;;;;5055995;28;20479;-72
2023/02/03 09:40:30;;;;;;;28.53;7.73;;;8.20;99.90;;;;;;5051165;28;20468;-72
2023/02/03 09:43:10;;;;;;;21.50;6.20;;;8.20;99.90;;;;;;5057465;28;20497;-70
2023/02/03 09:45:38;;;;;;;21.20;5.93;;;8.20;99.90;;;;;;5033209;28;22859;-71
2023/02/03 09:48:13;;;;;;;23.77;5.83;;;8.20;99.90;;;;;;5038417;28;20884;-71
2023/02/03 09:50:45;;;;;;;25.27;6.10;;;8.30;99.90;;;;;;5055452;28;20496;-71
2023/02/03 09:53:26;;;;;;;27.50;6.67;;;8.30;99.90;;;;;;5058390;28;20492;-72
2023/02/03 09:55:55;;;;;;;20.03;6.07;;;8.30;99.90;;;;;;5053230;28;20489;-70
2023/02/03 09:58:24;;;;;;;21.47;6.23;;;8.30;99.90;;;;;;5054460;28;20475;-71
2023/02/03 10:00:55;;;;;;;24.73;5.93;;;8.30;99.90;;;;;;5055395;28;20477;-72
2023/02/03 10:03:31;;;;;;;23.60;6.60;;;8.30;99.90;;;;;;5044829;28;21101;-71
2023/02/03 10:06:12;;;;;;;26.00;6.70;;;8.40;99.90;;;;;;5059029;28;21007;-72
2023/02/03 10:09:18;;;;;;;23.53;5.70;;;8.40;99.90;;;;;;5051817;28;20492;-71
2023/02/03 10:12:05;;;;;;;22.47;5.77;;;8.40;99.90;;;;;;5057877;28;21726;-71
2023/02/03 10:14:43;;;;;;;19.93;6.03;;;8.40;99.90;;;;;;5050061;28;20985;-72
2023/02/03 10:17:27;;;;;;;26.07;6.43;;;8.40;99.90;;;;;;5054025;27;20580;-72
2023/02/03 10:20:01;;;;;;;26.10;7.73;;;8.40;99.90;;;;;;5053247;28;20469;-72
2023/02/03 10:22:35;;;;;;;21.30;5.97;;;8.40;99.90;;;;;;5049388;28;20875;-71
2023/02/03 10:25:07;;;;;;;22.07;6.30;;;8.40;99.90;;;;;;5053042;28;21019;-71
2023/02/03 10:27:37;;;;;;;21.87;6.70;;;8.40;99.90;;;;;;5050065;28;20476;-71
2023/02/03 10:30:20;;;;;;;27.93;7.33;;;8.40;99.90;;;;;;5055450;28;20473;-71
2023/02/03 10:32:52;;;;;;;28.33;7.27;;;8.50;99.90;;;;;;5053682;28;21111;-71
2023/02/03 10:35:26;;;;;;;21.63;6.47;;;8.40;99.90;;;;;;5045149;28;20494;-71
2023/02/03 10:37:58;;;;;;;22.93;6.90;;;8.40;99.90;;;;;;5046699;28;20476;-71
2023/02/03 10:40:27;;;;;;;30.90;8.10;;;8.40;99.90;;;;;;5059250;28;20469;-72
2023/02/03 10:45:42;;;;;;;23.83;7.00;;;8.40;99.90;;;;;;5041321;28;20505;-71
2023/02/03 10:48:16;;;;;;;25.40;7.10;;;8.50;99.90;;;;;;5047902;28;20473;-71
2023/02/03 10:50:48;;;;;;;20.77;6.43;;;8.40;99.90;;;;;;5046712;28;20465;-71
2023/02/03 10:53:24;;;;;;;25.77;6.83;;;8.50;99.90;;;;;;5045765;28;20705;-73
2023/02/03 10:56:01;;;;;;;27.60;6.50;;;8.50;99.90;;;;;;5038700;28;20492;-73
2023/02/03 10:58:32;;;;;;;25.53;6.97;;;8.50;99.90;;;;;;5052427;28;20976;-73
2023/02/03 11:01:08;;;;;;;25.00;6.60;;;8.50;99.90;;;;;;5047754;28;20479;-72
2023/02/03 11:03:36;;;;;;;21.90;6.20;;;8.60;99.90;;;;;;5044451;28;20496;-73
2023/02/03 11:06:08;;;;;;;27.00;6.97;;;8.60;99.90;;;;;;5051689;28;21161;-73
2023/02/03 11:08:39;;;;;;;18.47;6.00;;;8.70;99.90;;;;;;5046674;28;20873;-71
2023/02/03 11:11:09;;;;;;;24.40;7.57;;;8.70;99.90;;;;;;5056515;28;20475;-71
2023/02/03 11:13:37;;;;;;;23.67;7.80;;;8.80;99.90;;;;;;5050676;28;20512;-70
2023/02/03 11:16:07;;;;;;;23.40;6.93;;;8.80;99.90;;;;;;5050978;28;20502;-71
2023/02/03 11:18:47;;;;;;;22.60;7.10;;;8.80;99.90;;;;;;5041410;28;20480;-73
2023/02/03 11:21:19;;;;;;;25.00;7.50;;;8.80;99.90;;;;;;5041497;28;20461;-70
2023/02/03 11:23:56;;;;;;;18.70;6.10;;;8.80;99.90;;;;;;5055478;28;20477;-71
2023/02/03 11:26:27;;;;;;;23.87;6.07;;;8.90;99.90;;;;;;5045071;28;21069;-71
2023/02/03 11:28:59;;;;;;;20.27;5.60;;;9.00;99.90;;;;;;5048402;28;20563;-71
2023/02/03 11:31:29;;;;;;;26.00;6.00;;;9.00;99.90;;;;;;5052487;28;20492;-71
2023/02/03 11:34:02;;;;;;;23.53;5.90;;;9.10;99.90;;;;;;5057420;28;20478;-70
2023/02/03 11:36:32;;;;;;;17.03;5.37;;;9.10;99.90;;;;;;5052379;28;20497;-72
2023/02/03 11:39:23;;;;;;;16.80;4.87;;;9.20;99.90;;;;;;5055922;28;22550;-71
2023/02/03 11:41:51;;;;;;;24.77;6.40;;;9.20;99.90;;;;;;5050712;28;20493;-73
2023/02/03 11:44:22;;;;;;;23.87;5.27;;;9.20;99.90;;;;;;5057373;28;20524;-71
2023/02/03 11:46:54;;;;;;;24.13;6.00;;;9.20;99.90;;;;;;5048048;28;20532;-71
2023/02/03 11:49:45;;;;;;;19.43;5.70;;;9.20;99.90;;;;;;5054832;28;20466;-70
2023/02/03 11:52:32;;;;;;;18.90;5.53;;;9.20;99.90;;;;;;5047689;28;20489;-69
2023/02/03 11:55:11;;;;;;;27.03;6.30;;;9.10;99.90;;;;;;5049362;28;20471;-71
2023/02/03 11:57:50;;;;;;;20.87;5.47;;;9.10;99.90;;;;;;5037690;28;20533;-71
2023/02/03 12:00:32;;;;;;;26.97;6.40;;;9.00;99.90;;;;;;5047346;28;20580;-73
2023/02/03 12:03:25;;;;;;;25.37;6.30;;;9.10;99.90;;;;;;5052457;28;20497;-71
2023/02/03 12:06:11;;;;;;;31.10;6.60;;;9.10;99.90;;;;;;5001117;28;20505;-71
2023/02/03 12:08:54;;;;;;;16.17;5.47;;;9.10;99.90;;;;;;5053370;28;20464;-72
2023/02/03 12:11:36;;;;;;;17.70;5.40;;;9.10;99.90;;;;;;5047598;28;20532;-71
2023/02/03 12:14:24;;;;;;;21.20;5.80;;;9.30;99.90;;;;;;5045435;28;20484;-72
2023/02/03 12:17:09;;;;;;;20.40;6.03;;;9.60;99.90;;;;;;5048511;28;20489;-72
2023/02/03 12:19:51;;;;;;;25.93;5.57;;;9.80;99.90;;;;;;5051807;28;20469;-72
2023/02/03 12:22:27;;;;;;;16.97;5.37;;;9.70;99.90;;;;;;5063915;28;21032;-71
2023/02/03 12:25:05;;;;;;;23.27;5.40;;;9.70;99.90;;;;;;5040883;28;20465;-72
2023/02/03 12:27:48;;;;;;;22.97;5.80;;;9.50;99.90;;;;;;5050648;28;20792;-73
2023/02/03 12:30:22;;;;;;;19.90;5.90;;;9.30;99.90;;;;;;5062252;28;20474;-71
2023/02/03 12:32:54;;;;;;;21.00;5.97;;;9.20;99.90;;;;;;5063073;28;20505;-74
2023/02/03 12:35:27;;;;;;;16.73;4.30;;;9.10;99.90;;;;;;5062703;28;20485;-71
2023/02/03 12:38:03;;;;;;;21.60;5.63;;;9.00;99.90;;;;;;5057495;28;20497;-71
2023/02/03 12:40:36;;;;;;;20.87;5.80;;;8.90;99.90;;;;;;5062922;28;20472;-71
2023/02/03 12:43:19;;;;;;;24.57;6.33;;;8.80;99.90;;;;;;5052096;28;20494;-74
2023/02/03 12:45:54;;;;;;;21.00;5.60;;;8.80;99.90;;;;;;5058516;28;20494;-72
2023/02/03 12:48:27;;;;;;;24.47;5.97;;;8.70;99.90;;;;;;5060490;28;20840;-72
2023/02/03 12:51:00;;;;;;;17.20;5.70;;;8.70;99.90;;;;;;5062188;28;20473;-76
2023/02/03 12:53:48;;;;;;;15.70;5.20;;;8.70;99.90;;;;;;5064087;28;20496;-72
2023/02/03 12:56:23;;;;;;;19.70;5.87;;;8.60;99.90;;;;;;5065868;28;20493;-70
2023/02/03 12:58:57;;;;;;;17.13;5.30;;;8.60;99.90;;;;;;5057330;28;20561;-74
2023/02/03 13:01:31;;;;;;;17.13;5.40;;;8.60;99.90;;;;;;5054694;28;20492;-73
2023/02/03 13:04:06;;;;;;;14.80;4.57;;;8.60;99.90;;;;;;5055664;28;20476;-72
2023/02/03 13:06:43;;;;;;;23.50;5.70;;;8.60;99.90;;;;;;5059936;28;20481;-72
2023/02/03 13:09:27;;;;;;;18.70;4.87;;;8.60;99.90;;;;;;5061748;28;20477;-73
2023/02/03 13:12:01;;;;;;;18.00;5.37;;;8.60;99.90;;;;;;5050809;28;20504;-72
2023/02/03 13:14:36;;;;;;;17.03;4.70;;;8.50;99.90;;;;;;5060040;28;20983;-71
2023/02/03 13:17:13;;;;;;;22.00;5.63;;;8.50;99.90;;;;;;5059899;28;20481;-72
2023/02/03 13:19:46;;;;;;;17.30;5.00;;;8.40;99.90;;;;;;5058284;28;20853;-73
2023/02/03 13:22:16;;;;;;;15.20;4.83;;;8.40;99.90;;;;;;5063044;28;20492;-73
2023/02/03 13:24:49;;;;;;;16.97;3.90;;;8.40;99.90;;;;;;5067797;28;20470;-72
2023/02/03 13:27:37;;;;;;;16.17;5.60;;;8.40;99.90;;;;;;5068496;28;20480;-73
2023/02/03 13:30:30;;;;;;;19.13;4.50;;;8.40;99.90;;;;;;5060191;28;20476;-72
2023/02/03 13:33:26;;;;;;;16.90;5.00;;;8.40;99.90;;;;;;5067717;28;20493;-72